KOXI

Starke County Airport

Knox, Indiana, USA
METAR KOXI 190455Z AUTO 35004KT 10SM OVC110 18/17 A2999 RMK AO1
Observed Flight Rules
Sep-19 @ 04:55 UTC (19 minutes ago) Visual Flight Rules
Wind Visibility Clouds
350° at 4 knots 10 miles
  • Overcast at 11,000' AGL
Temperatures Readings
Current 18°C / 64°F
Dewpoint 17°C / 63°F
Humidity 94%
Altimeter 29.99" Hg
Pressure 1016 hPa
Elevation 209
METAR KOXI 190455Z AUTO 35004KT 10SM OVC110 18/17 A2999 RMK AO1
Observed Flight Rules
Sep-19 @ 04:55 UTC
(19 minutes ago)
VFR
Wind Visibility
350° at 4 knots 10 miles
Clouds
  • Overcast at 11,000' AGL
Temperature Dewpoint
18°C / 64°F 17°C / 63°F
Humidity Altimeter Pressure
94% 29.99" Hg 1016 hPa